createdAt,value
2018-05-07T00:01:00.930Z,67.60
2018-05-07T00:03:28.742Z,67.60
2018-05-07T00:05:56.752Z,67.90
2018-05-07T00:08:24.724Z,68.40
2018-05-07T00:10:52.622Z,70.00
2018-05-07T00:13:20.620Z,71.90
2018-05-07T00:15:48.558Z,72.90
2018-05-07T00:18:16.550Z,74.50
2018-05-07T00:20:44.544Z,75.70
2018-05-07T00:23:12.630Z,75.00
2018-05-07T00:25:41.392Z,72.90
2018-05-07T00:28:09.419Z,72.90
2018-05-07T00:30:37.558Z,72.10
2018-05-07T00:33:06.265Z,71.20
2018-05-07T00:35:34.183Z,71.10
2018-05-07T00:38:02.079Z,69.00
2018-05-07T00:40:30.814Z,68.40
2018-05-07T00:42:58.720Z,68.30
2018-05-07T00:45:26.654Z,68.60
2018-05-07T00:47:54.570Z,68.10
2018-05-07T00:50:23.268Z,68.30
2018-05-07T00:52:52.044Z,67.70
2018-05-07T00:55:22.716Z,68.10
2018-05-07T00:57:50.644Z,68.00
2018-05-07T01:00:19.345Z,68.10
2018-05-07T01:02:48.035Z,67.70
2018-05-07T01:05:16.072Z,67.70
2018-05-07T01:07:44.028Z,67.90
2018-05-07T01:10:11.974Z,68.10
2018-05-07T01:12:40.011Z,68.80
2018-05-07T01:15:07.949Z,69.90
2018-05-07T01:17:35.921Z,71.40
2018-05-07T01:20:03.903Z,72.00
2018-05-07T01:22:31.849Z,72.50
2018-05-07T01:24:59.853Z,72.60
2018-05-07T01:27:28.531Z,72.80
2018-05-07T01:29:56.527Z,72.80
2018-05-07T01:32:24.493Z,72.40
2018-05-07T01:34:53.197Z,72.70
2018-05-07T01:37:21.197Z,72.80
2018-05-07T01:39:49.170Z,71.30
2018-05-07T01:42:17.099Z,72.10
2018-05-07T01:44:45.051Z,71.00
2018-05-07T01:47:13.804Z,68.20
2018-05-07T01:49:41.802Z,68.20
2018-05-07T01:52:10.558Z,67.30
2018-05-07T01:54:39.289Z,68.00
2018-05-07T01:57:08.015Z,66.90
2018-05-07T01:59:36.078Z,67.00
2018-05-07T02:02:04.048Z,65.00
2018-05-07T02:04:32.056Z,65.40
2018-05-07T02:07:00.057Z,66.60
2018-05-07T02:09:28.731Z,64.50
2018-05-07T02:11:57.584Z,65.40
2018-05-07T02:14:25.542Z,65.40
2018-05-07T02:16:53.482Z,64.10
2018-05-07T02:19:21.482Z,65.20
2018-05-07T02:21:49.400Z,65.10
2018-05-07T02:24:18.146Z,64.60
2018-05-07T02:26:46.962Z,65.00
2018-05-07T02:29:14.897Z,65.10
2018-05-07T02:31:42.797Z,65.40
2018-05-07T02:34:10.786Z,65.90
2018-05-07T02:36:39.578Z,66.20
2018-05-07T02:39:08.243Z,66.10
2018-05-07T02:41:36.153Z,66.00
2018-05-07T02:44:04.193Z,66.90
2018-05-07T02:46:32.926Z,67.30
2018-05-07T02:49:00.873Z,66.70
2018-05-07T02:51:28.872Z,67.80
2018-05-07T02:53:56.861Z,67.80
2018-05-07T02:56:24.792Z,68.80
2018-05-07T02:58:52.790Z,68.90
2018-05-07T03:01:20.775Z,69.00
2018-05-07T03:03:48.755Z,68.70
2018-05-07T03:06:16.690Z,69.30
2018-05-07T03:08:44.615Z,69.10
2018-05-07T03:11:13.302Z,69.20
2018-05-07T03:13:42.019Z,68.90
2018-05-07T03:16:10.028Z,68.80
2018-05-07T03:18:37.970Z,69.00
2018-05-07T03:21:05.959Z,69.40
2018-05-07T03:23:34.640Z,69.60
2018-05-07T03:26:02.561Z,69.60
2018-05-07T03:28:31.268Z,70.20
2018-05-07T03:30:59.202Z,70.20
2018-05-07T03:33:27.970Z,70.10
2018-05-07T03:35:55.940Z,70.10
2018-05-07T03:38:23.920Z,70.20
2018-05-07T03:40:51.941Z,70.40
2018-05-07T03:43:19.933Z,70.70
2018-05-07T03:45:47.887Z,70.40
2018-05-07T03:48:15.938Z,71.00
2018-05-07T03:50:43.891Z,71.10
2018-05-07T03:53:12.656Z,71.10
2018-05-07T03:55:40.555Z,71.10
2018-05-07T03:58:09.247Z,72.30
2018-05-07T04:00:37.274Z,72.40
2018-05-07T04:03:05.213Z,72.90
2018-05-07T04:05:34.179Z,72.50
2018-05-07T04:08:02.103Z,73.70
2018-05-07T04:10:30.016Z,72.60
2018-05-07T04:12:58.069Z,75.60
2018-05-07T04:15:26.723Z,80.10
2018-05-07T04:18:15.530Z,80.20
2018-05-07T04:20:55.196Z,77.70
2018-05-07T04:23:35.092Z,77.20
2018-05-07T04:26:03.780Z,76.40
2018-05-07T04:28:31.766Z,76.20
2018-05-07T04:31:00.561Z,76.80
2018-05-07T04:33:29.250Z,77.00
2018-05-07T04:35:57.906Z,75.80
2018-05-07T04:38:25.914Z,75.80
2018-05-07T04:40:53.898Z,77.60
2018-05-07T04:43:21.816Z,80.00
2018-05-07T04:45:49.727Z,81.40
2018-05-07T04:48:17.688Z,82.70
2018-05-07T04:50:45.643Z,81.70
2018-05-07T04:53:14.358Z,86.20
2018-05-07T04:55:42.327Z,86.20
2018-05-07T04:58:10.414Z,85.30
2018-05-07T05:00:38.624Z,87.00
2018-05-07T05:03:06.649Z,85.70
2018-05-07T05:05:34.575Z,87.10
2018-05-07T05:08:03.348Z,88.50
2018-05-07T05:10:31.286Z,88.10
2018-05-07T05:12:59.386Z,88.90
2018-05-07T05:15:27.303Z,86.80
2018-05-07T05:17:55.286Z,86.10
2018-05-07T05:20:23.197Z,85.60
2018-05-07T05:22:51.138Z,85.10
2018-05-07T05:25:19.112Z,84.70
2018-05-07T05:27:47.028Z,85.60
2018-05-07T05:30:15.737Z,85.70
2018-05-07T05:32:43.686Z,85.40
2018-05-07T05:35:12.598Z,84.70
2018-05-07T05:37:40.581Z,84.70
2018-05-07T05:40:08.514Z,82.90
2018-05-07T05:42:37.310Z,81.70
2018-05-07T05:45:06.066Z,80.30
2018-05-07T05:47:33.959Z,80.30
2018-05-07T05:50:02.885Z,81.90
2018-05-07T05:52:30.863Z,81.90
2018-05-07T05:54:58.767Z,82.00
2018-05-07T05:57:26.686Z,75.70
2018-05-07T05:59:54.669Z,75.70
2018-05-07T06:02:22.649Z,80.60
2018-05-07T06:04:50.586Z,78.60
2018-05-07T06:07:18.589Z,79.30
2018-05-07T06:09:46.521Z,79.70
2018-05-07T06:12:14.431Z,80.50
2018-05-07T06:14:42.394Z,79.80
2018-05-07T06:17:10.394Z,77.30
2018-05-07T06:19:38.396Z,78.90
2018-05-07T06:22:06.395Z,78.00
2018-05-07T06:24:34.295Z,77.80
2018-05-07T06:27:02.220Z,78.90
2018-05-07T06:29:30.183Z,82.40
2018-05-07T06:31:58.162Z,81.60
2018-05-07T06:34:26.102Z,74.60
2018-05-07T06:36:54.820Z,75.10
2018-05-07T06:39:22.805Z,75.10
2018-05-07T06:41:50.774Z,73.70
2018-05-07T06:44:18.690Z,73.30
2018-05-07T06:46:47.368Z,72.70
2018-05-07T06:49:16.151Z,70.10
2018-05-07T06:51:44.127Z,70.00
2018-05-07T06:54:12.037Z,70.50
2018-05-07T06:56:40.027Z,71.80
2018-05-07T06:59:07.963Z,69.70
2018-05-07T07:01:35.883Z,70.00
2018-05-07T07:04:03.814Z,68.90
2018-05-07T07:06:31.795Z,71.90
2018-05-07T07:09:00.641Z,66.90
2018-05-07T07:11:29.353Z,72.80
2018-05-07T07:13:57.306Z,72.70
2018-05-07T07:16:26.028Z,64.40
2018-05-07T07:18:54.011Z,64.40
2018-05-07T07:21:21.966Z,66.00
2018-05-07T07:23:49.915Z,66.20
2018-05-07T07:26:17.845Z,63.10
2018-05-07T07:28:45.788Z,66.60
2018-05-07T07:31:13.723Z,64.80
2018-05-07T07:33:41.670Z,68.50
2018-05-07T07:36:10.408Z,59.00
2018-05-07T07:38:39.385Z,58.90
2018-05-07T07:41:07.301Z,59.20
2018-05-07T07:43:35.276Z,63.70
2018-05-07T07:46:03.183Z,60.40
2018-05-07T07:48:31.214Z,59.70
2018-05-07T07:50:59.128Z,57.10
2018-05-07T07:53:27.134Z,58.30
2018-05-07T07:55:55.062Z,58.90
2018-05-07T07:58:23.001Z,60.50
2018-05-07T08:00:51.746Z,58.60
2018-05-07T08:03:19.768Z,58.30
2018-05-07T08:05:48.523Z,56.70
2018-05-07T08:08:16.444Z,56.60
2018-05-07T08:10:44.383Z,55.20
2018-05-07T08:13:13.126Z,55.30
2018-05-07T08:15:41.102Z,54.80
2018-05-07T08:18:09.205Z,54.70
2018-05-07T08:20:37.162Z,55.00
2018-05-07T08:23:05.192Z,54.00
2018-05-07T08:25:33.185Z,54.50
2018-05-07T08:28:01.130Z,55.10
2018-05-07T08:30:29.072Z,53.90
2018-05-07T08:32:57.806Z,55.50
2018-05-07T08:35:25.767Z,55.50
2018-05-07T08:37:53.714Z,52.50
2018-05-07T08:40:21.638Z,51.10
2018-05-07T08:42:49.595Z,53.90
2018-05-07T08:45:17.531Z,52.60
2018-05-07T08:47:45.514Z,53.30
2018-05-07T08:50:13.516Z,53.90
2018-05-07T08:52:41.515Z,53.80
2018-05-07T08:55:09.532Z,54.70
2018-05-07T08:57:37.443Z,54.10
2018-05-07T09:00:05.356Z,53.10
2018-05-07T09:02:33.274Z,52.80
2018-05-07T09:05:01.285Z,52.00
2018-05-07T09:07:29.325Z,51.40
2018-05-07T09:09:58.087Z,52.10
2018-05-07T09:12:26.120Z,52.00
2018-05-07T09:14:54.098Z,51.70
2018-05-07T09:17:22.141Z,51.20
2018-05-07T09:19:50.905Z,50.80
2018-05-07T09:22:18.921Z,50.80
2018-05-07T09:24:47.005Z,50.20
2018-05-07T09:27:14.989Z,50.40
2018-05-07T09:29:42.886Z,51.00
2018-05-07T09:32:10.787Z,49.90
2018-05-07T09:34:38.894Z,50.50
2018-05-07T09:37:06.862Z,49.80
2018-05-07T09:39:34.870Z,50.50
2018-05-07T09:42:02.922Z,51.30
2018-05-07T09:44:30.910Z,50.60
2018-05-07T09:46:58.893Z,50.00
2018-05-07T09:49:27.597Z,48.40
2018-05-07T09:51:55.593Z,48.40
2018-05-07T09:54:23.591Z,49.20
2018-05-07T09:56:56.398Z,48.20
2018-05-07T09:59:24.270Z,48.10
2018-05-07T10:01:52.988Z,49.30
2018-05-07T10:04:20.924Z,49.30
2018-05-07T10:06:49.600Z,50.80
2018-05-07T10:09:17.582Z,50.70
2018-05-07T10:11:46.255Z,49.80
2018-05-07T10:14:14.203Z,49.70
2018-05-07T10:16:42.140Z,50.80
2018-05-07T10:19:10.090Z,48.00
2018-05-07T10:21:38.771Z,49.30
2018-05-07T10:24:06.737Z,49.30
2018-05-07T10:26:35.445Z,49.40
2018-05-07T10:29:03.441Z,49.10
2018-05-07T10:31:31.418Z,45.60
2018-05-07T10:33:59.509Z,46.60
2018-05-07T10:36:27.418Z,48.20
2018-05-07T10:38:55.388Z,44.90
2018-05-07T10:41:23.299Z,48.20
2018-05-07T10:43:51.201Z,45.50
2018-05-07T10:46:19.995Z,46.80
2018-05-07T10:48:48.780Z,43.90
2018-05-07T10:51:17.494Z,44.70
2018-05-07T10:53:45.434Z,44.70
2018-05-07T10:56:14.162Z,46.00
2018-05-07T10:58:42.053Z,45.80
2018-05-07T11:01:10.010Z,45.60
2018-05-07T11:03:37.936Z,46.20
2018-05-07T11:06:06.719Z,46.80
2018-05-07T11:08:35.454Z,45.10
2018-05-07T11:11:03.449Z,45.20
2018-05-07T11:13:31.385Z,45.50
2018-05-07T11:15:59.416Z,44.30
2018-05-07T11:18:28.104Z,44.00
2018-05-07T11:20:56.787Z,45.30
2018-05-07T11:23:25.502Z,45.10
2018-05-07T11:25:53.419Z,45.00
2018-05-07T11:28:21.394Z,43.90
2018-05-07T11:30:49.406Z,42.70
2018-05-07T11:33:17.396Z,44.00
2018-05-07T11:35:45.410Z,42.80
2018-05-07T11:38:13.334Z,45.00
2018-05-07T11:40:41.319Z,44.40
2018-05-07T11:43:09.262Z,43.80
2018-05-07T11:45:37.159Z,45.60
2018-05-07T11:48:05.091Z,41.70
2018-05-07T11:50:32.979Z,44.10
2018-05-07T11:53:00.903Z,44.80
2018-05-07T11:55:29.672Z,41.20
2018-05-07T11:57:57.664Z,41.10
2018-05-07T12:00:26.476Z,42.10
2018-05-07T12:02:54.485Z,42.00
2018-05-07T12:05:22.454Z,41.60
2018-05-07T12:07:50.503Z,42.20
2018-05-07T12:10:18.515Z,40.20
2018-05-07T12:12:46.439Z,42.40
2018-05-07T12:15:14.413Z,42.30
2018-05-07T12:17:42.316Z,42.30
2018-05-07T12:20:10.268Z,41.20
2018-05-07T12:22:38.249Z,40.70
2018-05-07T12:25:06.172Z,41.60
2018-05-07T12:27:34.078Z,40.70
2018-05-07T12:30:02.073Z,40.30
2018-05-07T12:32:30.029Z,39.80
2018-05-07T12:34:58.698Z,41.20
2018-05-07T12:37:26.638Z,41.30
2018-05-07T12:39:54.575Z,41.90
2018-05-07T12:42:22.557Z,40.00
2018-05-07T12:44:51.340Z,42.00
2018-05-07T12:47:20.028Z,39.60
2018-05-07T12:49:48.784Z,41.50
2018-05-07T12:52:16.680Z,41.40
2018-05-07T12:54:45.385Z,40.40
2018-05-07T12:57:14.088Z,40.20
2018-05-07T12:59:42.050Z,40.10
2018-05-07T13:02:09.991Z,37.60
2018-05-07T13:04:38.755Z,37.50
2018-05-07T13:07:06.703Z,37.50
2018-05-07T13:09:35.010Z,40.20
2018-05-07T13:12:02.972Z,37.00
2018-05-07T13:14:30.898Z,38.90
2018-05-07T13:16:58.913Z,38.30
2018-05-07T13:19:26.945Z,36.90
2018-05-07T13:21:54.865Z,38.70
2018-05-07T13:24:23.306Z,38.50
2018-05-07T13:26:51.209Z,37.20
2018-05-07T13:29:19.201Z,37.50
2018-05-07T13:31:47.935Z,36.40
2018-05-07T13:34:15.922Z,36.40
2018-05-07T13:36:43.902Z,36.90
2018-05-07T13:39:11.977Z,37.00
2018-05-07T13:41:39.939Z,36.80
2018-05-07T13:44:07.862Z,37.20
2018-05-07T13:46:35.884Z,37.40
2018-05-07T13:49:04.031Z,35.50
2018-05-07T13:51:32.020Z,35.60
2018-05-07T13:53:59.974Z,36.40
2018-05-07T13:56:27.963Z,36.20
2018-05-07T13:58:55.946Z,36.30
2018-05-07T14:01:24.730Z,34.70
2018-05-07T14:03:52.673Z,34.60
2018-05-07T14:06:20.665Z,37.40
2018-05-07T14:08:48.647Z,36.60
2018-05-07T14:11:16.627Z,35.40
2018-05-07T14:13:45.306Z,35.70
2018-05-07T14:16:14.050Z,34.90
2018-05-07T14:18:41.982Z,34.90
2018-05-07T14:21:09.962Z,35.50
2018-05-07T14:23:37.926Z,33.60
2018-05-07T14:26:05.966Z,35.10
2018-05-07T14:28:34.671Z,33.80
2018-05-07T14:31:03.430Z,32.70
2018-05-07T14:33:31.487Z,32.70
2018-05-07T14:35:59.464Z,33.60
2018-05-07T14:38:27.424Z,35.30
2018-05-07T14:40:55.428Z,35.10
2018-05-07T14:43:24.198Z,34.80
2018-05-07T14:45:52.206Z,34.80
2018-05-07T14:48:20.899Z,34.70
2018-05-07T14:50:48.830Z,34.70
2018-05-07T14:53:16.882Z,33.70
2018-05-07T14:55:44.906Z,33.60
2018-05-07T14:58:12.934Z,34.90
2018-05-07T15:00:40.886Z,32.30
2018-05-07T15:03:08.848Z,34.30
2018-05-07T15:05:36.924Z,33.40
2018-05-07T15:08:04.891Z,33.30
2018-05-07T15:10:32.899Z,34.20
2018-05-07T15:13:00.893Z,32.60
2018-05-07T15:15:29.650Z,31.90
2018-05-07T15:17:57.561Z,31.90
2018-05-07T15:20:25.483Z,32.20
2018-05-07T15:22:53.450Z,31.80
2018-05-07T15:25:21.462Z,33.30
2018-05-07T15:27:50.193Z,32.80
2018-05-07T15:30:18.205Z,32.80
2018-05-07T15:32:46.916Z,34.20
2018-05-07T15:35:14.837Z,34.00
2018-05-07T15:37:42.846Z,34.80
2018-05-07T15:40:10.753Z,33.80
2018-05-07T15:42:38.745Z,34.40
2018-05-07T15:45:06.708Z,33.70
2018-05-07T15:47:34.698Z,34.10
2018-05-07T15:50:02.701Z,34.00
2018-05-07T15:52:30.748Z,32.70
2018-05-07T15:54:59.419Z,29.70
2018-05-07T15:57:27.369Z,29.60
2018-05-07T15:59:55.418Z,31.10
2018-05-07T16:02:23.398Z,32.00
2018-05-07T16:04:51.324Z,32.40
2018-05-07T16:07:20.055Z,33.10
2018-05-07T16:09:48.060Z,33.10
2018-05-07T16:12:16.203Z,33.30
2018-05-07T16:14:44.998Z,33.80
2018-05-07T16:17:12.997Z,33.70
2018-05-07T16:19:40.935Z,32.40
2018-05-07T16:22:09.007Z,34.50
2018-05-07T16:24:37.666Z,34.20
2018-05-07T16:27:05.552Z,34.10
2018-05-07T16:29:33.571Z,34.40
2018-05-07T16:32:02.291Z,34.50
2018-05-07T16:34:30.275Z,34.50
2018-05-07T16:36:58.268Z,34.60
2018-05-07T16:39:26.220Z,35.50
2018-05-07T16:41:54.132Z,35.70
2018-05-07T16:44:22.081Z,37.10
2018-05-07T16:46:50.059Z,38.30
2018-05-07T16:49:17.975Z,37.70
2018-05-07T16:51:45.922Z,38.80
2018-05-07T16:54:14.705Z,40.70
2018-05-07T16:56:43.454Z,41.20
2018-05-07T16:59:11.465Z,41.20
2018-05-07T17:01:40.170Z,41.90
2018-05-07T17:04:08.159Z,41.90
2018-05-07T17:06:36.190Z,41.40
2018-05-07T17:09:04.998Z,41.40
2018-05-07T17:11:32.889Z,41.40
2018-05-07T17:14:01.048Z,41.80
2018-05-07T17:16:28.985Z,41.90
2018-05-07T17:18:57.706Z,42.50
2018-05-07T17:21:25.675Z,42.40
2018-05-07T17:23:53.678Z,42.00
2018-05-07T17:26:22.449Z,42.70
2018-05-07T17:28:50.455Z,42.60
2018-05-07T17:31:18.376Z,42.10
2018-05-07T17:33:46.377Z,40.30
2018-05-07T17:36:15.153Z,39.40
2018-05-07T17:38:43.085Z,39.40
2018-05-07T17:41:11.859Z,39.20
2018-05-07T17:43:40.598Z,39.20
2018-05-07T17:46:20.555Z,39.20
2018-05-07T17:49:02.201Z,40.20
2018-05-07T17:51:30.905Z,43.00
2018-05-07T17:53:58.873Z,43.00
2018-05-07T17:56:26.810Z,42.50
2018-05-07T17:58:55.507Z,43.30
2018-05-07T18:01:24.277Z,43.70
2018-05-07T18:03:52.263Z,43.60
2018-05-07T18:06:21.225Z,45.50
2018-05-07T18:08:49.825Z,45.90
2018-05-07T18:11:18.599Z,44.80
2018-05-07T18:13:46.522Z,44.30
2018-05-07T18:16:14.525Z,46.20
2018-05-07T18:18:42.576Z,47.90
2018-05-07T18:21:10.534Z,49.20
2018-05-07T18:23:38.472Z,49.40
2018-05-07T18:26:07.245Z,49.20
2018-05-07T18:28:35.194Z,49.10
2018-05-07T18:31:03.122Z,49.70
2018-05-07T18:33:31.102Z,48.40
2018-05-07T18:35:59.095Z,48.90
2018-05-07T18:38:27.097Z,48.50
2018-05-07T18:40:55.054Z,50.20
2018-05-07T18:43:23.026Z,51.50
2018-05-07T18:45:50.966Z,51.10
2018-05-07T18:48:18.911Z,50.30
2018-05-07T18:50:46.903Z,50.70
2018-05-07T18:53:14.806Z,50.40
2018-05-07T18:55:42.730Z,52.10
2018-05-07T18:58:10.793Z,51.80
2018-05-07T19:00:38.941Z,51.30
2018-05-07T19:03:07.723Z,50.80
2018-05-07T19:05:36.602Z,51.10
2018-05-07T19:08:04.672Z,50.70
2018-05-07T19:10:32.614Z,50.40
2018-05-07T19:13:01.362Z,54.10
2018-05-07T19:15:30.132Z,55.90
2018-05-07T19:17:58.837Z,58.70
2018-05-07T19:20:27.591Z,59.70
2018-05-07T19:22:55.556Z,59.80
2018-05-07T19:25:23.574Z,60.90
2018-05-07T19:27:51.485Z,61.20
2018-05-07T19:30:19.438Z,61.20
2018-05-07T19:32:47.395Z,61.50
2018-05-07T19:35:15.331Z,61.60
2018-05-07T19:37:44.081Z,60.10
2018-05-07T19:40:12.020Z,60.00
2018-05-07T19:42:39.976Z,59.60
2018-05-07T19:45:07.984Z,59.40
2018-05-07T19:47:35.929Z,58.90
2018-05-07T19:50:04.012Z,58.50
2018-05-07T19:52:31.911Z,58.30
2018-05-07T19:54:59.834Z,57.90
2018-05-07T19:57:27.759Z,58.00
2018-05-07T19:59:55.767Z,58.00
2018-05-07T20:02:23.683Z,57.90
2018-05-07T20:04:51.621Z,58.30
2018-05-07T20:07:19.555Z,57.90
2018-05-07T20:09:48.314Z,58.80
2018-05-07T20:12:16.299Z,58.80
2018-05-07T20:14:44.275Z,59.40
2018-05-07T20:17:13.228Z,59.30
2018-05-07T20:19:41.128Z,59.30
2018-05-07T20:22:09.165Z,59.00
2018-05-07T20:24:37.194Z,58.80
2018-05-07T20:27:05.928Z,59.20
2018-05-07T20:29:33.912Z,59.20
2018-05-07T20:32:01.941Z,58.80
2018-05-07T20:34:29.944Z,58.50
2018-05-07T20:36:57.851Z,58.70
2018-05-07T20:39:26.560Z,58.80
2018-05-07T20:41:54.498Z,58.70
2018-05-07T20:44:22.431Z,59.60
2018-05-07T20:46:50.451Z,58.70
2018-05-07T20:49:19.112Z,58.40
2018-05-07T20:51:47.035Z,58.30
2018-05-07T20:54:14.990Z,58.60
2018-05-07T20:56:42.930Z,58.00
2018-05-07T20:59:11.651Z,59.50
2018-05-07T21:01:39.686Z,59.00
2018-05-07T21:04:08.386Z,58.60
2018-05-07T21:06:37.228Z,58.40
2018-05-07T21:09:05.336Z,58.40
2018-05-07T21:11:33.395Z,58.70
2018-05-07T21:14:01.364Z,59.00
2018-05-07T21:16:29.378Z,59.20
2018-05-07T21:18:57.533Z,59.30
2018-05-07T21:21:26.285Z,58.80
2018-05-07T21:23:54.281Z,58.80
2018-05-07T21:26:22.996Z,59.30
2018-05-07T21:28:50.993Z,59.30
2018-05-07T21:31:18.977Z,59.90
2018-05-07T21:33:46.892Z,58.80
2018-05-07T21:36:15.551Z,58.30
2018-05-07T21:38:43.561Z,58.30
2018-05-07T21:41:11.481Z,57.40
2018-05-07T21:43:39.412Z,57.50
2018-05-07T21:46:07.419Z,58.10
2018-05-07T21:48:35.376Z,57.70
2018-05-07T21:51:03.308Z,58.30
2018-05-07T21:53:31.313Z,58.00
2018-05-07T21:55:59.258Z,57.70
2018-05-07T21:58:27.182Z,58.20
2018-05-07T22:00:55.292Z,59.00
2018-05-07T22:03:23.267Z,58.60
2018-05-07T22:05:51.175Z,60.00
2018-05-07T22:08:19.195Z,62.60
2018-05-07T22:10:47.205Z,63.50
2018-05-07T22:13:15.119Z,64.90
2018-05-07T22:15:43.909Z,66.20
2018-05-07T22:18:12.590Z,67.10
2018-05-07T22:20:41.285Z,66.70
2018-05-07T22:23:10.023Z,67.90
2018-05-07T22:25:38.041Z,67.90
2018-05-07T22:28:06.732Z,67.80
2018-05-07T22:30:35.497Z,67.20
2018-05-07T22:33:04.231Z,67.90
2018-05-07T22:35:32.246Z,66.90
2018-05-07T22:38:00.239Z,67.00
2018-05-07T22:40:28.950Z,66.20
2018-05-07T22:42:56.940Z,66.20
2018-05-07T22:45:24.879Z,64.60
2018-05-07T22:47:52.857Z,64.70
2018-05-07T22:50:20.872Z,64.10
2018-05-07T22:52:50.338Z,62.60
2018-05-07T22:55:21.375Z,62.60
2018-05-07T22:57:49.315Z,62.30
2018-05-07T23:00:18.135Z,62.00
2018-05-07T23:02:49.129Z,62.00
2018-05-07T23:05:17.105Z,61.80
2018-05-07T23:07:45.163Z,61.50
2018-05-07T23:10:13.091Z,62.70
2018-05-07T23:12:41.068Z,62.00
2018-05-07T23:15:09.050Z,60.70
2018-05-07T23:17:37.029Z,61.50
2018-05-07T23:20:04.976Z,62.00
2018-05-07T23:22:32.934Z,61.60
2018-05-07T23:25:00.859Z,62.30
2018-05-07T23:27:28.842Z,62.10
2018-05-07T23:29:57.564Z,61.30
2018-05-07T23:32:25.469Z,61.30
2018-05-07T23:34:53.380Z,61.20
2018-05-07T23:37:21.383Z,60.80
2018-05-07T23:39:49.279Z,60.80
2018-05-07T23:42:17.238Z,60.40
2018-05-07T23:44:45.243Z,60.50
2018-05-07T23:47:13.957Z,61.30
2018-05-07T23:49:41.886Z,60.50
2018-05-07T23:52:09.820Z,60.90
2018-05-07T23:54:37.849Z,61.50
2018-05-07T23:57:06.562Z,62.30
2018-05-07T23:59:34.582Z,62.40
